sensor_id;sensor_type;location;lat;lon;timestamp;P1;durP1;ratioP1;P2;durP2;ratioP2
9420;SDS011;4749;51.398;5.466;2023-07-20T00:01:55;5.60;;;3.60;;
9420;SDS011;4749;51.398;5.466;2023-07-20T00:04:22;6.38;;;3.55;;
9420;SDS011;4749;51.398;5.466;2023-07-20T00:06:49;5.80;;;3.22;;
9420;SDS011;4749;51.398;5.466;2023-07-20T00:09:16;6.35;;;3.95;;
9420;SDS011;4749;51.398;5.466;2023-07-20T00:11:48;5.57;;;3.60;;
9420;SDS011;4749;51.398;5.466;2023-07-20T00:14:19;6.85;;;3.58;;
9420;SDS011;4749;51.398;5.466;2023-07-20T00:16:46;8.07;;;3.70;;
9420;SDS011;4749;51.398;5.466;2023-07-20T00:19:22;8.82;;;3.88;;
9420;SDS011;4749;51.398;5.466;2023-07-20T00:21:53;6.50;;;4.05;;
9420;SDS011;4749;51.398;5.466;2023-07-20T00:24:21;7.30;;;4.20;;
9420;SDS011;4749;51.398;5.466;2023-07-20T00:26:49;8.18;;;4.32;;
9420;SDS011;4749;51.398;5.466;2023-07-20T00:29:17;6.88;;;4.07;;
9420;SDS011;4749;51.398;5.466;2023-07-20T00:31:44;9.13;;;3.80;;
9420;SDS011;4749;51.398;5.466;2023-07-20T00:34:13;7.07;;;4.53;;
9420;SDS011;4749;51.398;5.466;2023-07-20T00:36:40;6.35;;;4.28;;
9420;SDS011;4749;51.398;5.466;2023-07-20T00:39:07;6.65;;;3.92;;
9420;SDS011;4749;51.398;5.466;2023-07-20T00:41:34;9.10;;;4.50;;
9420;SDS011;4749;51.398;5.466;2023-07-20T00:44:02;7.75;;;4.70;;
9420;SDS011;4749;51.398;5.466;2023-07-20T00:46:29;8.82;;;4.38;;
9420;SDS011;4749;51.398;5.466;2023-07-20T00:48:56;10.65;;;4.32;;
9420;SDS011;4749;51.398;5.466;2023-07-20T00:51:23;7.88;;;4.70;;
9420;SDS011;4749;51.398;5.466;2023-07-20T00:53:53;7.75;;;4.82;;
9420;SDS011;4749;51.398;5.466;2023-07-20T00:56:20;11.23;;;4.60;;
9420;SDS011;4749;51.398;5.466;2023-07-20T00:58:49;8.32;;;4.70;;
9420;SDS011;4749;51.398;5.466;2023-07-20T01:01:16;8.40;;;4.50;;
9420;SDS011;4749;51.398;5.466;2023-07-20T01:03:44;12.07;;;5.55;;
9420;SDS011;4749;51.398;5.466;2023-07-20T01:14:43;9.25;;;4.82;;
9420;SDS011;4749;51.398;5.466;2023-07-20T01:17:10;10.20;;;4.78;;
9420;SDS011;4749;51.398;5.466;2023-07-20T01:19:38;8.85;;;5.03;;
9420;SDS011;4749;51.398;5.466;2023-07-20T01:22:27;9.10;;;4.80;;
9420;SDS011;4749;51.398;5.466;2023-07-20T01:28:30;8.38;;;5.57;;
9420;SDS011;4749;51.398;5.466;2023-07-20T01:31:24;6.30;;;4.80;;
9420;SDS011;4749;51.398;5.466;2023-07-20T01:33:55;9.52;;;5.15;;
9420;SDS011;4749;51.398;5.466;2023-07-20T01:36:26;7.03;;;4.97;;
9420;SDS011;4749;51.398;5.466;2023-07-20T01:38:56;8.70;;;5.22;;
9420;SDS011;4749;51.398;5.466;2023-07-20T01:41:24;6.45;;;4.40;;
9420;SDS011;4749;51.398;5.466;2023-07-20T01:43:51;9.75;;;5.00;;
9420;SDS011;4749;51.398;5.466;2023-07-20T01:46:18;9.35;;;4.97;;
9420;SDS011;4749;51.398;5.466;2023-07-20T01:48:45;9.57;;;5.35;;
9420;SDS011;4749;51.398;5.466;2023-07-20T01:51:13;8.98;;;4.95;;
9420;SDS011;4749;51.398;5.466;2023-07-20T01:53:40;7.15;;;4.43;;
9420;SDS011;4749;51.398;5.466;2023-07-20T01:56:08;8.27;;;5.28;;
9420;SDS011;4749;51.398;5.466;2023-07-20T01:58:35;7.93;;;5.22;;
9420;SDS011;4749;51.398;5.466;2023-07-20T02:01:02;7.78;;;5.22;;
9420;SDS011;4749;51.398;5.466;2023-07-20T02:03:29;8.10;;;5.65;;
9420;SDS011;4749;51.398;5.466;2023-07-20T02:05:56;11.95;;;5.63;;
9420;SDS011;4749;51.398;5.466;2023-07-20T02:08:23;7.57;;;5.05;;
9420;SDS011;4749;51.398;5.466;2023-07-20T02:10:50;8.20;;;5.47;;
9420;SDS011;4749;51.398;5.466;2023-07-20T02:13:18;12.27;;;5.55;;
9420;SDS011;4749;51.398;5.466;2023-07-20T02:15:45;6.95;;;5.18;;
9420;SDS011;4749;51.398;5.466;2023-07-20T02:18:13;9.52;;;5.68;;
9420;SDS011;4749;51.398;5.466;2023-07-20T02:20:41;9.82;;;5.18;;
9420;SDS011;4749;51.398;5.466;2023-07-20T02:23:08;11.60;;;5.80;;
9420;SDS011;4749;51.398;5.466;2023-07-20T02:25:36;10.35;;;5.85;;
9420;SDS011;4749;51.398;5.466;2023-07-20T02:28:04;11.23;;;6.45;;
9420;SDS011;4749;51.398;5.466;2023-07-20T02:30:31;11.93;;;6.72;;
9420;SDS011;4749;51.398;5.466;2023-07-20T02:32:58;9.82;;;6.45;;
9420;SDS011;4749;51.398;5.466;2023-07-20T02:35:25;12.13;;;6.97;;
9420;SDS011;4749;51.398;5.466;2023-07-20T02:37:53;11.50;;;7.47;;
9420;SDS011;4749;51.398;5.466;2023-07-20T02:40:21;14.52;;;8.45;;
9420;SDS011;4749;51.398;5.466;2023-07-20T02:42:48;14.45;;;7.65;;
9420;SDS011;4749;51.398;5.466;2023-07-20T02:45:15;12.90;;;7.80;;
9420;SDS011;4749;51.398;5.466;2023-07-20T02:47:42;17.30;;;9.18;;
9420;SDS011;4749;51.398;5.466;2023-07-20T02:50:10;13.52;;;8.77;;
9420;SDS011;4749;51.398;5.466;2023-07-20T02:52:40;15.27;;;8.25;;
9420;SDS011;4749;51.398;5.466;2023-07-20T02:55:07;13.95;;;8.45;;
9420;SDS011;4749;51.398;5.466;2023-07-20T02:57:35;14.68;;;8.77;;
9420;SDS011;4749;51.398;5.466;2023-07-20T03:00:02;16.45;;;10.20;;
9420;SDS011;4749;51.398;5.466;2023-07-20T03:02:32;13.75;;;9.57;;
9420;SDS011;4749;51.398;5.466;2023-07-20T03:05:00;16.80;;;9.32;;
9420;SDS011;4749;51.398;5.466;2023-07-20T03:07:29;14.18;;;9.30;;
9420;SDS011;4749;51.398;5.466;2023-07-20T03:09:56;14.88;;;9.77;;
9420;SDS011;4749;51.398;5.466;2023-07-20T03:12:23;19.33;;;11.25;;
9420;SDS011;4749;51.398;5.466;2023-07-20T03:14:51;17.90;;;10.07;;
9420;SDS011;4749;51.398;5.466;2023-07-20T03:17:18;15.70;;;8.98;;
9420;SDS011;4749;51.398;5.466;2023-07-20T03:19:47;15.32;;;9.98;;
9420;SDS011;4749;51.398;5.466;2023-07-20T03:22:14;18.42;;;10.13;;
9420;SDS011;4749;51.398;5.466;2023-07-20T03:24:41;14.55;;;9.77;;
9420;SDS011;4749;51.398;5.466;2023-07-20T03:27:08;15.00;;;10.68;;
9420;SDS011;4749;51.398;5.466;2023-07-20T03:29:35;21.40;;;11.10;;
9420;SDS011;4749;51.398;5.466;2023-07-20T03:32:02;12.68;;;10.50;;
9420;SDS011;4749;51.398;5.466;2023-07-20T03:34:29;15.88;;;10.65;;
9420;SDS011;4749;51.398;5.466;2023-07-20T03:36:56;18.42;;;10.77;;
9420;SDS011;4749;51.398;5.466;2023-07-20T03:39:23;15.35;;;10.15;;
9420;SDS011;4749;51.398;5.466;2023-07-20T03:41:50;17.50;;;10.93;;
9420;SDS011;4749;51.398;5.466;2023-07-20T03:44:17;16.25;;;10.80;;
9420;SDS011;4749;51.398;5.466;2023-07-20T03:46:44;18.48;;;12.05;;
9420;SDS011;4749;51.398;5.466;2023-07-20T03:49:11;15.75;;;11.60;;
9420;SDS011;4749;51.398;5.466;2023-07-20T03:51:38;15.73;;;11.52;;
9420;SDS011;4749;51.398;5.466;2023-07-20T03:54:06;18.20;;;12.27;;
9420;SDS011;4749;51.398;5.466;2023-07-20T03:56:34;17.48;;;12.20;;
9420;SDS011;4749;51.398;5.466;2023-07-20T03:59:02;16.60;;;12.20;;
9420;SDS011;4749;51.398;5.466;2023-07-20T04:01:29;20.92;;;12.38;;
9420;SDS011;4749;51.398;5.466;2023-07-20T04:03:56;19.38;;;12.30;;
9420;SDS011;4749;51.398;5.466;2023-07-20T04:06:23;18.90;;;12.55;;
9420;SDS011;4749;51.398;5.466;2023-07-20T04:08:51;15.48;;;11.20;;
9420;SDS011;4749;51.398;5.466;2023-07-20T04:11:18;13.80;;;10.68;;
9420;SDS011;4749;51.398;5.466;2023-07-20T04:13:45;14.52;;;10.07;;
9420;SDS011;4749;51.398;5.466;2023-07-20T04:16:12;14.27;;;9.50;;
9420;SDS011;4749;51.398;5.466;2023-07-20T04:18:39;13.73;;;10.15;;
9420;SDS011;4749;51.398;5.466;2023-07-20T04:21:10;12.77;;;10.45;;
9420;SDS011;4749;51.398;5.466;2023-07-20T04:23:37;17.77;;;11.18;;
9420;SDS011;4749;51.398;5.466;2023-07-20T04:26:04;15.48;;;11.13;;
9420;SDS011;4749;51.398;5.466;2023-07-20T04:28:33;14.15;;;9.52;;
9420;SDS011;4749;51.398;5.466;2023-07-20T04:31:10;11.55;;;9.38;;
9420;SDS011;4749;51.398;5.466;2023-07-20T04:33:41;16.10;;;9.73;;
9420;SDS011;4749;51.398;5.466;2023-07-20T04:36:08;9.85;;;8.23;;
9420;SDS011;4749;51.398;5.466;2023-07-20T04:38:35;10.52;;;7.40;;
9420;SDS011;4749;51.398;5.466;2023-07-20T04:41:02;12.10;;;6.72;;
9420;SDS011;4749;51.398;5.466;2023-07-20T04:43:29;8.20;;;7.00;;
9420;SDS011;4749;51.398;5.466;2023-07-20T04:45:57;9.95;;;7.30;;
9420;SDS011;4749;51.398;5.466;2023-07-20T04:48:24;10.77;;;7.25;;
9420;SDS011;4749;51.398;5.466;2023-07-20T04:50:52;9.20;;;6.85;;
9420;SDS011;4749;51.398;5.466;2023-07-20T04:53:19;10.30;;;6.70;;
9420;SDS011;4749;51.398;5.466;2023-07-20T04:55:49;9.65;;;6.80;;
9420;SDS011;4749;51.398;5.466;2023-07-20T04:58:19;6.35;;;5.72;;
9420;SDS011;4749;51.398;5.466;2023-07-20T05:00:50;7.57;;;5.72;;
9420;SDS011;4749;51.398;5.466;2023-07-20T05:03:19;7.10;;;5.63;;
9420;SDS011;4749;51.398;5.466;2023-07-20T05:05:47;7.05;;;5.80;;
9420;SDS011;4749;51.398;5.466;2023-07-20T05:08:16;6.95;;;5.47;;
9420;SDS011;4749;51.398;5.466;2023-07-20T05:10:43;10.18;;;6.10;;
9420;SDS011;4749;51.398;5.466;2023-07-20T05:13:10;7.90;;;5.60;;
9420;SDS011;4749;51.398;5.466;2023-07-20T05:15:38;8.57;;;6.93;;
9420;SDS011;4749;51.398;5.466;2023-07-20T05:18:05;10.88;;;6.85;;
9420;SDS011;4749;51.398;5.466;2023-07-20T05:20:32;7.15;;;6.22;;
9420;SDS011;4749;51.398;5.466;2023-07-20T05:23:01;7.93;;;5.82;;
9420;SDS011;4749;51.398;5.466;2023-07-20T05:25:28;6.63;;;5.60;;
9420;SDS011;4749;51.398;5.466;2023-07-20T05:27:56;6.20;;;5.22;;
9420;SDS011;4749;51.398;5.466;2023-07-20T05:30:24;7.45;;;5.75;;
9420;SDS011;4749;51.398;5.466;2023-07-20T05:32:51;7.75;;;5.35;;
9420;SDS011;4749;51.398;5.466;2023-07-20T05:35:21;6.55;;;5.32;;
9420;SDS011;4749;51.398;5.466;2023-07-20T05:37:49;5.00;;;3.38;;
9420;SDS011;4749;51.398;5.466;2023-07-20T05:40:16;4.10;;;2.92;;
9420;SDS011;4749;51.398;5.466;2023-07-20T05:42:45;4.25;;;2.70;;
9420;SDS011;4749;51.398;5.466;2023-07-20T05:45:15;5.57;;;2.60;;
9420;SDS011;4749;51.398;5.466;2023-07-20T05:47:42;2.72;;;2.40;;
9420;SDS011;4749;51.398;5.466;2023-07-20T05:50:09;3.20;;;2.30;;
9420;SDS011;4749;51.398;5.466;2023-07-20T05:52:37;4.30;;;2.30;;
9420;SDS011;4749;51.398;5.466;2023-07-20T05:55:05;3.42;;;2.78;;
9420;SDS011;4749;51.398;5.466;2023-07-20T05:57:33;3.80;;;2.72;;
9420;SDS011;4749;51.398;5.466;2023-07-20T06:00:02;3.67;;;2.33;;
9420;SDS011;4749;51.398;5.466;2023-07-20T06:02:30;2.88;;;2.47;;
9420;SDS011;4749;51.398;5.466;2023-07-20T06:04:59;4.15;;;2.10;;
9420;SDS011;4749;51.398;5.466;2023-07-20T06:07:26;2.95;;;2.25;;
9420;SDS011;4749;51.398;5.466;2023-07-20T06:09:53;5.05;;;2.20;;
9420;SDS011;4749;51.398;5.466;2023-07-20T06:12:20;3.40;;;2.17;;
9420;SDS011;4749;51.398;5.466;2023-07-20T06:14:47;3.17;;;2.13;;
9420;SDS011;4749;51.398;5.466;2023-07-20T06:17:15;3.10;;;1.75;;
9420;SDS011;4749;51.398;5.466;2023-07-20T06:19:42;2.42;;;1.95;;
9420;SDS011;4749;51.398;5.466;2023-07-20T06:22:09;3.92;;;2.40;;
9420;SDS011;4749;51.398;5.466;2023-07-20T06:24:36;3.20;;;2.30;;
9420;SDS011;4749;51.398;5.466;2023-07-20T06:27:03;5.40;;;2.70;;
9420;SDS011;4749;51.398;5.466;2023-07-20T06:29:33;3.10;;;2.80;;
9420;SDS011;4749;51.398;5.466;2023-07-20T06:32:00;3.60;;;2.40;;
9420;SDS011;4749;51.398;5.466;2023-07-20T06:34:27;2.47;;;2.00;;
9420;SDS011;4749;51.398;5.466;2023-07-20T06:36:55;3.42;;;2.35;;
9420;SDS011;4749;51.398;5.466;2023-07-20T06:39:23;5.68;;;3.17;;
9420;SDS011;4749;51.398;5.466;2023-07-20T06:41:52;5.38;;;2.50;;
9420;SDS011;4749;51.398;5.466;2023-07-20T06:44:21;3.03;;;2.20;;
9420;SDS011;4749;51.398;5.466;2023-07-20T06:46:49;3.92;;;2.33;;
9420;SDS011;4749;51.398;5.466;2023-07-20T06:49:25;3.33;;;2.08;;
9420;SDS011;4749;51.398;5.466;2023-07-20T06:51:54;3.03;;;2.15;;
9420;SDS011;4749;51.398;5.466;2023-07-20T06:54:21;3.67;;;1.92;;
9420;SDS011;4749;51.398;5.466;2023-07-20T06:56:49;4.03;;;2.00;;
9420;SDS011;4749;51.398;5.466;2023-07-20T06:59:20;3.17;;;1.98;;
9420;SDS011;4749;51.398;5.466;2023-07-20T07:01:47;3.72;;;2.05;;
9420;SDS011;4749;51.398;5.466;2023-07-20T07:04:15;3.53;;;1.60;;
9420;SDS011;4749;51.398;5.466;2023-07-20T07:06:42;2.47;;;1.65;;
9420;SDS011;4749;51.398;5.466;2023-07-20T07:09:10;3.17;;;1.48;;
9420;SDS011;4749;51.398;5.466;2023-07-20T07:11:37;2.53;;;1.20;;
9420;SDS011;4749;51.398;5.466;2023-07-20T07:14:05;2.53;;;1.50;;
9420;SDS011;4749;51.398;5.466;2023-07-20T07:16:34;1.00;;;0.90;;
9420;SDS011;4749;51.398;5.466;2023-07-20T07:19:04;1.45;;;1.10;;
9420;SDS011;4749;51.398;5.466;2023-07-20T07:21:32;2.28;;;1.00;;
9420;SDS011;4749;51.398;5.466;2023-07-20T07:23:59;1.38;;;0.82;;
9420;SDS011;4749;51.398;5.466;2023-07-20T07:26:26;1.67;;;1.00;;
9420;SDS011;4749;51.398;5.466;2023-07-20T07:28:53;2.80;;;1.30;;
9420;SDS011;4749;51.398;5.466;2023-07-20T07:31:20;2.13;;;0.90;;
9420;SDS011;4749;51.398;5.466;2023-07-20T07:33:47;3.25;;;1.30;;
9420;SDS011;4749;51.398;5.466;2023-07-20T07:36:14;1.73;;;1.27;;
9420;SDS011;4749;51.398;5.466;2023-07-20T07:38:42;4.10;;;2.00;;
9420;SDS011;4749;51.398;5.466;2023-07-20T07:41:12;2.42;;;1.33;;
9420;SDS011;4749;51.398;5.466;2023-07-20T07:43:40;1.70;;;1.10;;
9420;SDS011;4749;51.398;5.466;2023-07-20T07:46:07;2.17;;;1.13;;
9420;SDS011;4749;51.398;5.466;2023-07-20T07:48:34;1.98;;;1.10;;
9420;SDS011;4749;51.398;5.466;2023-07-20T07:51:01;1.85;;;1.10;;
9420;SDS011;4749;51.398;5.466;2023-07-20T07:53:28;4.13;;;1.27;;
9420;SDS011;4749;51.398;5.466;2023-07-20T07:55:55;2.17;;;1.17;;
9420;SDS011;4749;51.398;5.466;2023-07-20T07:58:23;2.45;;;1.17;;
9420;SDS011;4749;51.398;5.466;2023-07-20T08:00:50;2.08;;;1.38;;
9420;SDS011;4749;51.398;5.466;2023-07-20T08:03:19;5.50;;;1.20;;
9420;SDS011;4749;51.398;5.466;2023-07-20T08:05:46;1.98;;;1.05;;
9420;SDS011;4749;51.398;5.466;2023-07-20T08:08:13;1.25;;;0.90;;
9420;SDS011;4749;51.398;5.466;2023-07-20T08:10:41;1.58;;;1.20;;
9420;SDS011;4749;51.398;5.466;2023-07-20T08:13:08;1.48;;;1.15;;
9420;SDS011;4749;51.398;5.466;2023-07-20T08:15:35;3.17;;;1.10;;
9420;SDS011;4749;51.398;5.466;2023-07-20T08:18:02;2.17;;;1.20;;
9420;SDS011;4749;51.398;5.466;2023-07-20T08:20:30;1.42;;;1.00;;
9420;SDS011;4749;51.398;5.466;2023-07-20T08:22:58;1.60;;;0.70;;
9420;SDS011;4749;51.398;5.466;2023-07-20T08:25:26;2.47;;;0.80;;
9420;SDS011;4749;51.398;5.466;2023-07-20T08:27:53;1.60;;;0.77;;
9420;SDS011;4749;51.398;5.466;2023-07-20T08:30:23;4.35;;;1.02;;
9420;SDS011;4749;51.398;5.466;2023-07-20T08:32:50;0.93;;;0.52;;
9420;SDS011;4749;51.398;5.466;2023-07-20T08:35:17;1.92;;;0.90;;
9420;SDS011;4749;51.398;5.466;2023-07-20T08:37:47;2.88;;;0.60;;
9420;SDS011;4749;51.398;5.466;2023-07-20T08:40:14;0.75;;;0.60;;
9420;SDS011;4749;51.398;5.466;2023-07-20T08:42:42;1.50;;;0.60;;
9420;SDS011;4749;51.398;5.466;2023-07-20T08:45:10;1.45;;;0.80;;
9420;SDS011;4749;51.398;5.466;2023-07-20T08:47:40;1.35;;;0.80;;
9420;SDS011;4749;51.398;5.466;2023-07-20T08:50:10;2.13;;;0.80;;
9420;SDS011;4749;51.398;5.466;2023-07-20T08:52:38;2.13;;;0.75;;
9420;SDS011;4749;51.398;5.466;2023-07-20T08:55:06;2.40;;;0.60;;
9420;SDS011;4749;51.398;5.466;2023-07-20T08:57:33;1.30;;;0.70;;
9420;SDS011;4749;51.398;5.466;2023-07-20T09:00:02;2.40;;;0.85;;
9420;SDS011;4749;51.398;5.466;2023-07-20T09:02:38;1.92;;;0.70;;
9420;SDS011;4749;51.398;5.466;2023-07-20T09:05:09;1.02;;;0.88;;
9420;SDS011;4749;51.398;5.466;2023-07-20T09:07:37;0.98;;;0.80;;
9420;SDS011;4749;51.398;5.466;2023-07-20T09:10:06;0.90;;;0.70;;
9420;SDS011;4749;51.398;5.466;2023-07-20T09:12:41;1.85;;;0.95;;
9420;SDS011;4749;51.398;5.466;2023-07-20T09:15:10;0.52;;;0.52;;
9420;SDS011;4749;51.398;5.466;2023-07-20T09:17:38;1.42;;;0.93;;
9420;SDS011;4749;51.398;5.466;2023-07-20T09:20:05;1.10;;;0.80;;
9420;SDS011;4749;51.398;5.466;2023-07-20T09:22:37;2.88;;;0.80;;
9420;SDS011;4749;51.398;5.466;2023-07-20T09:25:14;0.55;;;0.55;;
9420;SDS011;4749;51.398;5.466;2023-07-20T09:27:44;2.28;;;0.70;;
9420;SDS011;4749;51.398;5.466;2023-07-20T09:30:17;1.23;;;0.90;;
9420;SDS011;4749;51.398;5.466;2023-07-20T09:32:48;1.90;;;0.65;;
9420;SDS011;4749;51.398;5.466;2023-07-20T09:35:20;0.60;;;0.60;;
9420;SDS011;4749;51.398;5.466;2023-07-20T09:37:58;1.05;;;0.60;;
9420;SDS011;4749;51.398;5.466;2023-07-20T09:40:30;2.70;;;0.90;;
9420;SDS011;4749;51.398;5.466;2023-07-20T09:43:09;2.85;;;0.90;;
9420;SDS011;4749;51.398;5.466;2023-07-20T09:45:41;1.25;;;0.77;;
9420;SDS011;4749;51.398;5.466;2023-07-20T09:48:12;0.90;;;0.68;;
9420;SDS011;4749;51.398;5.466;2023-07-20T09:50:42;0.68;;;0.60;;
9420;SDS011;4749;51.398;5.466;2023-07-20T09:53:19;1.35;;;0.77;;
9420;SDS011;4749;51.398;5.466;2023-07-20T09:55:47;0.68;;;0.60;;
9420;SDS011;4749;51.398;5.466;2023-07-20T09:58:15;0.80;;;0.50;;
9420;SDS011;4749;51.398;5.466;2023-07-20T10:00:43;1.65;;;0.70;;
9420;SDS011;4749;51.398;5.466;2023-07-20T10:03:21;1.70;;;0.50;;
9420;SDS011;4749;51.398;5.466;2023-07-20T10:05:52;0.98;;;0.70;;
9420;SDS011;4749;51.398;5.466;2023-07-20T10:08:25;0.80;;;0.73;;
9420;SDS011;4749;51.398;5.466;2023-07-20T10:11:01;1.10;;;0.60;;
9420;SDS011;4749;51.398;5.466;2023-07-20T10:13:30;0.77;;;0.70;;
9420;SDS011;4749;51.398;5.466;2023-07-20T10:16:05;1.63;;;0.57;;
9420;SDS011;4749;51.398;5.466;2023-07-20T10:21:18;1.25;;;0.70;;
9420;SDS011;4749;51.398;5.466;2023-07-20T10:23:52;1.65;;;0.63;;
9420;SDS011;4749;51.398;5.466;2023-07-20T10:26:23;0.93;;;0.60;;
9420;SDS011;4749;51.398;5.466;2023-07-20T10:28:51;1.58;;;0.70;;
9420;SDS011;4749;51.398;5.466;2023-07-20T10:31:19;3.55;;;0.60;;
9420;SDS011;4749;51.398;5.466;2023-07-20T10:33:47;0.82;;;0.63;;
9420;SDS011;4749;51.398;5.466;2023-07-20T10:36:17;1.15;;;0.70;;
9420;SDS011;4749;51.398;5.466;2023-07-20T10:38:57;1.83;;;0.55;;
9420;SDS011;4749;51.398;5.466;2023-07-20T10:41:28;1.85;;;0.60;;
9420;SDS011;4749;51.398;5.466;2023-07-20T10:44:07;0.75;;;0.52;;
9420;SDS011;4749;51.398;5.466;2023-07-20T10:49:05;1.65;;;0.63;;
9420;SDS011;4749;51.398;5.466;2023-07-20T10:51:47;1.73;;;0.70;;
9420;SDS011;4749;51.398;5.466;2023-07-20T10:56:49;1.00;;;0.60;;
9420;SDS011;4749;51.398;5.466;2023-07-20T10:59:17;0.70;;;0.57;;
9420;SDS011;4749;51.398;5.466;2023-07-20T11:01:46;0.80;;;0.60;;
9420;SDS011;4749;51.398;5.466;2023-07-20T11:04:19;1.48;;;0.70;;
9420;SDS011;4749;51.398;5.466;2023-07-20T11:07:03;1.38;;;0.65;;
9420;SDS011;4749;51.398;5.466;2023-07-20T11:09:36;0.95;;;0.70;;
9420;SDS011;4749;51.398;5.466;2023-07-20T11:12:09;0.60;;;0.60;;
9420;SDS011;4749;51.398;5.466;2023-07-20T11:14:40;1.65;;;0.70;;
9420;SDS011;4749;51.398;5.466;2023-07-20T11:17:32;1.85;;;0.80;;
9420;SDS011;4749;51.398;5.466;2023-07-20T11:20:00;0.80;;;0.60;;
9420;SDS011;4749;51.398;5.466;2023-07-20T11:22:32;1.48;;;0.63;;
9420;SDS011;4749;51.398;5.466;2023-07-20T11:25:00;1.90;;;0.50;;
9420;SDS011;4749;51.398;5.466;2023-07-20T11:27:27;1.52;;;0.70;;
9420;SDS011;4749;51.398;5.466;2023-07-20T11:29:56;1.30;;;0.52;;
9420;SDS011;4749;51.398;5.466;2023-07-20T11:32:23;0.75;;;0.63;;
9420;SDS011;4749;51.398;5.466;2023-07-20T11:34:51;1.30;;;0.88;;
9420;SDS011;4749;51.398;5.466;2023-07-20T11:37:18;0.95;;;0.73;;
9420;SDS011;4749;51.398;5.466;2023-07-20T11:39:46;1.20;;;0.77;;
9420;SDS011;4749;51.398;5.466;2023-07-20T11:42:13;1.65;;;0.60;;
9420;SDS011;4749;51.398;5.466;2023-07-20T11:45:05;1.55;;;0.70;;
9420;SDS011;4749;51.398;5.466;2023-07-20T11:47:32;0.77;;;0.60;;
9420;SDS011;4749;51.398;5.466;2023-07-20T11:50:03;1.15;;;0.70;;
9420;SDS011;4749;51.398;5.466;2023-07-20T11:52:31;0.85;;;0.60;;
9420;SDS011;4749;51.398;5.466;2023-07-20T11:54:58;1.70;;;0.80;;
9420;SDS011;4749;51.398;5.466;2023-07-20T11:57:25;0.75;;;0.75;;
9420;SDS011;4749;51.398;5.466;2023-07-20T11:59:53;1.23;;;0.70;;
9420;SDS011;4749;51.398;5.466;2023-07-20T12:02:27;0.88;;;0.70;;
9420;SDS011;4749;51.398;5.466;2023-07-20T12:04:55;1.13;;;0.80;;
9420;SDS011;4749;51.398;5.466;2023-07-20T12:07:23;0.90;;;0.60;;
9420;SDS011;4749;51.398;5.466;2023-07-20T12:10:06;1.00;;;0.73;;
9420;SDS011;4749;51.398;5.466;2023-07-20T12:12:39;0.70;;;0.60;;
9420;SDS011;4749;51.398;5.466;2023-07-20T12:15:12;0.85;;;0.70;;
9420;SDS011;4749;51.398;5.466;2023-07-20T12:17:49;1.20;;;0.70;;
9420;SDS011;4749;51.398;5.466;2023-07-20T12:20:31;1.95;;;0.70;;
9420;SDS011;4749;51.398;5.466;2023-07-20T12:23:00;1.85;;;0.80;;
9420;SDS011;4749;51.398;5.466;2023-07-20T12:28:16;1.52;;;0.77;;
9420;SDS011;4749;51.398;5.466;2023-07-20T12:30:46;0.73;;;0.60;;
9420;SDS011;4749;51.398;5.466;2023-07-20T12:33:17;0.68;;;0.60;;
9420;SDS011;4749;51.398;5.466;2023-07-20T12:35:44;2.50;;;0.68;;
9420;SDS011;4749;51.398;5.466;2023-07-20T12:38:12;1.65;;;0.80;;
9420;SDS011;4749;51.398;5.466;2023-07-20T12:40:39;1.20;;;0.75;;
9420;SDS011;4749;51.398;5.466;2023-07-20T12:43:07;1.85;;;0.80;;
9420;SDS011;4749;51.398;5.466;2023-07-20T12:45:34;0.82;;;0.70;;
9420;SDS011;4749;51.398;5.466;2023-07-20T12:48:02;3.92;;;0.80;;
9420;SDS011;4749;51.398;5.466;2023-07-20T12:50:29;2.80;;;1.02;;
9420;SDS011;4749;51.398;5.466;2023-07-20T12:52:56;2.42;;;0.90;;
9420;SDS011;4749;51.398;5.466;2023-07-20T12:55:23;2.45;;;0.88;;
9420;SDS011;4749;51.398;5.466;2023-07-20T12:57:50;0.80;;;0.60;;
9420;SDS011;4749;51.398;5.466;2023-07-20T13:00:17;1.40;;;0.80;;
9420;SDS011;4749;51.398;5.466;2023-07-20T13:02:46;1.02;;;0.60;;
9420;SDS011;4749;51.398;5.466;2023-07-20T13:05:13;1.20;;;0.70;;
9420;SDS011;4749;51.398;5.466;2023-07-20T13:07:41;2.28;;;0.80;;
9420;SDS011;4749;51.398;5.466;2023-07-20T13:10:11;1.17;;;0.80;;
9420;SDS011;4749;51.398;5.466;2023-07-20T13:12:39;1.40;;;0.70;;
9420;SDS011;4749;51.398;5.466;2023-07-20T13:15:07;1.33;;;0.90;;
9420;SDS011;4749;51.398;5.466;2023-07-20T13:17:38;1.70;;;1.20;;
9420;SDS011;4749;51.398;5.466;2023-07-20T13:20:09;1.33;;;0.73;;
9420;SDS011;4749;51.398;5.466;2023-07-20T13:22:38;1.15;;;0.90;;
9420;SDS011;4749;51.398;5.466;2023-07-20T13:25:11;1.58;;;0.70;;
9420;SDS011;4749;51.398;5.466;2023-07-20T13:27:38;1.00;;;0.80;;
9420;SDS011;4749;51.398;5.466;2023-07-20T13:30:05;4.78;;;1.05;;
9420;SDS011;4749;51.398;5.466;2023-07-20T13:32:36;1.17;;;0.90;;
9420;SDS011;4749;51.398;5.466;2023-07-20T13:35:06;1.00;;;0.90;;
9420;SDS011;4749;51.398;5.466;2023-07-20T13:37:34;1.98;;;1.00;;
9420;SDS011;4749;51.398;5.466;2023-07-20T13:40:01;0.80;;;0.80;;
9420;SDS011;4749;51.398;5.466;2023-07-20T13:42:31;1.05;;;0.80;;
9420;SDS011;4749;51.398;5.466;2023-07-20T13:45:01;1.35;;;0.90;;
9420;SDS011;4749;51.398;5.466;2023-07-20T13:47:31;2.30;;;1.30;;
9420;SDS011;4749;51.398;5.466;2023-07-20T13:50:02;1.73;;;1.10;;
9420;SDS011;4749;51.398;5.466;2023-07-20T13:52:30;0.90;;;0.90;;
9420;SDS011;4749;51.398;5.466;2023-07-20T13:55:00;1.40;;;1.00;;
9420;SDS011;4749;51.398;5.466;2023-07-20T13:57:30;2.80;;;1.25;;
9420;SDS011;4749;51.398;5.466;2023-07-20T14:00:01;1.40;;;1.25;;
9420;SDS011;4749;51.398;5.466;2023-07-20T14:02:30;1.23;;;0.95;;
9420;SDS011;4749;51.398;5.466;2023-07-20T14:05:01;1.80;;;1.00;;
9420;SDS011;4749;51.398;5.466;2023-07-20T14:07:31;2.03;;;1.13;;
9420;SDS011;4749;51.398;5.466;2023-07-20T14:09:58;1.25;;;1.15;;
9420;SDS011;4749;51.398;5.466;2023-07-20T14:12:28;1.13;;;1.00;;
9420;SDS011;4749;51.398;5.466;2023-07-20T14:14:55;1.15;;;1.05;;
9420;SDS011;4749;51.398;5.466;2023-07-20T14:17:22;1.10;;;1.10;;
9420;SDS011;4749;51.398;5.466;2023-07-20T14:19:50;1.00;;;0.90;;
9420;SDS011;4749;51.398;5.466;2023-07-20T14:22:19;2.05;;;1.00;;
9420;SDS011;4749;51.398;5.466;2023-07-20T14:24:46;1.70;;;1.10;;
9420;SDS011;4749;51.398;5.466;2023-07-20T14:27:13;1.48;;;1.15;;
9420;SDS011;4749;51.398;5.466;2023-07-20T14:29:40;2.22;;;0.90;;
9420;SDS011;4749;51.398;5.466;2023-07-20T14:32:07;1.02;;;0.88;;
9420;SDS011;4749;51.398;5.466;2023-07-20T14:34:34;1.13;;;1.00;;
9420;SDS011;4749;51.398;5.466;2023-07-20T14:37:05;1.10;;;1.00;;
9420;SDS011;4749;51.398;5.466;2023-07-20T14:39:32;1.77;;;0.95;;
9420;SDS011;4749;51.398;5.466;2023-07-20T14:41:59;1.30;;;1.20;;
9420;SDS011;4749;51.398;5.466;2023-07-20T14:44:26;1.52;;;1.10;;
9420;SDS011;4749;51.398;5.466;2023-07-20T14:46:53;3.08;;;1.00;;
9420;SDS011;4749;51.398;5.466;2023-07-20T14:49:39;2.08;;;1.00;;
9420;SDS011;4749;51.398;5.466;2023-07-20T14:52:06;2.67;;;0.90;;
9420;SDS011;4749;51.398;5.466;2023-07-20T14:54:37;1.13;;;1.00;;
9420;SDS011;4749;51.398;5.466;2023-07-20T14:57:04;2.63;;;1.00;;
9420;SDS011;4749;51.398;5.466;2023-07-20T14:59:33;1.40;;;0.95;;
9420;SDS011;4749;51.398;5.466;2023-07-20T15:02:00;1.30;;;0.90;;
9420;SDS011;4749;51.398;5.466;2023-07-20T15:04:27;2.85;;;0.80;;
9420;SDS011;4749;51.398;5.466;2023-07-20T15:06:55;1.75;;;0.88;;
9420;SDS011;4749;51.398;5.466;2023-07-20T15:09:22;1.38;;;0.98;;
9420;SDS011;4749;51.398;5.466;2023-07-20T15:11:50;0.98;;;0.75;;
9420;SDS011;4749;51.398;5.466;2023-07-20T15:14:16;3.92;;;1.13;;
9420;SDS011;4749;51.398;5.466;2023-07-20T15:16:44;1.35;;;0.80;;
9420;SDS011;4749;51.398;5.466;2023-07-20T15:19:14;1.10;;;0.90;;
9420;SDS011;4749;51.398;5.466;2023-07-20T15:21:43;1.50;;;1.00;;
9420;SDS011;4749;51.398;5.466;2023-07-20T15:24:10;0.85;;;0.80;;
9420;SDS011;4749;51.398;5.466;2023-07-20T15:26:37;1.17;;;0.90;;
9420;SDS011;4749;51.398;5.466;2023-07-20T15:29:05;1.23;;;0.98;;
9420;SDS011;4749;51.398;5.466;2023-07-20T15:31:32;2.42;;;0.80;;
9420;SDS011;4749;51.398;5.466;2023-07-20T15:34:02;3.25;;;1.00;;
9420;SDS011;4749;51.398;5.466;2023-07-20T15:36:29;1.00;;;0.90;;
9420;SDS011;4749;51.398;5.466;2023-07-20T15:38:56;3.20;;;1.00;;
9420;SDS011;4749;51.398;5.466;2023-07-20T15:41:24;3.10;;;1.27;;
9420;SDS011;4749;51.398;5.466;2023-07-20T15:43:51;1.92;;;1.20;;
9420;SDS011;4749;51.398;5.466;2023-07-20T15:49:06;1.95;;;1.50;;